createdAt,value
2022-11-29T00:00:03.198Z,1010.986
2022-11-29T00:07:01.798Z,1010.996
2022-11-29T00:14:01.682Z,1010.996
2022-11-29T00:21:02.198Z,1011.061
2022-11-29T00:28:01.901Z,1011.061
2022-11-29T00:35:06.654Z,1011.019
2022-11-29T00:42:01.599Z,1011.019
2022-11-29T00:49:01.797Z,1011.116
2022-11-29T00:56:01.583Z,1011.2
2022-11-29T01:00:02.146Z,1011.2
2022-11-29T01:07:01.628Z,1011.2
2022-11-29T01:14:01.834Z,1011.151
2022-11-29T01:21:02.283Z,1011.151
2022-11-29T01:28:01.828Z,1011.243
2022-11-29T01:35:01.734Z,1011.21
2022-11-29T01:42:02.096Z,1011.21
2022-11-29T01:49:01.696Z,1011.239
2022-11-29T01:56:01.528Z,1011.239
2022-11-29T02:00:02.238Z,1011.398
2022-11-29T02:07:01.881Z,1011.398
2022-11-29T02:14:01.383Z,1011.182
2022-11-29T02:21:02.024Z,1011.182
2022-11-29T02:28:01.581Z,1011.42
2022-11-29T02:35:01.832Z,1011.42
2022-11-29T02:42:01.446Z,1011.569
2022-11-29T02:49:01.464Z,1011.569
2022-11-29T02:56:02.116Z,1011.541
2022-11-29T03:00:01.712Z,1011.541
2022-11-29T03:07:02.260Z,1011.727
2022-11-29T03:14:01.820Z,1011.727
2022-11-29T03:21:01.891Z,1011.799
2022-11-29T03:28:01.379Z,1011.799
2022-11-29T03:35:02.423Z,1011.846
2022-11-29T03:42:01.749Z,1011.846
2022-11-29T03:49:01.790Z,1011.992
2022-11-29T03:56:02.194Z,1012.033
2022-11-29T04:00:01.732Z,1012.033
2022-11-29T04:07:02.168Z,1012.033
2022-11-29T04:14:01.619Z,1012.166
2022-11-29T04:21:01.656Z,1012.292
2022-11-29T04:28:01.805Z,1012.292
2022-11-29T04:35:02.319Z,1012.355
2022-11-29T04:42:01.856Z,1012.355
2022-11-29T04:49:01.772Z,1012.393
2022-11-29T04:56:02.297Z,1012.393
2022-11-29T05:00:01.913Z,1012.653
2022-11-29T05:07:01.351Z,1012.653
2022-11-29T05:14:01.757Z,1012.853
2022-11-29T05:21:02.275Z,1012.853
2022-11-29T05:28:06.982Z,1012.932
2022-11-29T05:35:02.409Z,1012.932
2022-11-29T05:42:01.425Z,1013.01
2022-11-29T05:49:02.151Z,1013.01
2022-11-29T05:56:01.830Z,1013.13
2022-11-29T06:00:02.309Z,1013.13
2022-11-29T06:07:01.547Z,1013.319
2022-11-29T06:14:01.698Z,1013.319
2022-11-29T06:21:02.144Z,1013.562
2022-11-29T06:28:01.553Z,1013.562
2022-11-29T06:35:02.448Z,1013.662
2022-11-29T06:42:01.432Z,1013.662
2022-11-29T06:49:02.490Z,1013.759
2022-11-29T06:56:01.406Z,1013.841
2022-11-29T07:00:01.989Z,1013.841
2022-11-29T07:07:02.157Z,1013.841
2022-11-29T07:14:01.308Z,1013.913
2022-11-29T07:21:01.369Z,1014.074
2022-11-29T07:28:02.060Z,1014.074
2022-11-29T07:35:02.445Z,1014.198
2022-11-29T07:42:02.253Z,1014.198
2022-11-29T07:49:02.048Z,1014.268
2022-11-29T07:56:02.235Z,1014.268
2022-11-29T08:00:01.805Z,1014.452
2022-11-29T08:07:02.282Z,1014.452
2022-11-29T08:14:01.793Z,1014.569
2022-11-29T08:21:02.190Z,1014.569
2022-11-29T08:28:01.625Z,1014.665
2022-11-29T08:35:02.365Z,1014.665
2022-11-29T08:42:01.769Z,1014.753
2022-11-29T08:49:01.837Z,1014.753
2022-11-29T08:56:01.379Z,1014.81
2022-11-29T09:00:01.956Z,1014.81
2022-11-29T09:07:02.190Z,1014.947
2022-11-29T09:14:01.752Z,1014.947
2022-11-29T09:21:01.355Z,1015.168
2022-11-29T09:28:01.376Z,1015.168
2022-11-29T09:35:02.063Z,1015.37
2022-11-29T09:42:01.591Z,1015.37
2022-11-29T09:49:01.803Z,1015.408
2022-11-29T09:56:01.897Z,1015.469
2022-11-29T10:00:02.463Z,1015.469
2022-11-29T10:07:01.643Z,1015.469
2022-11-29T10:14:01.743Z,1015.63
2022-11-29T10:21:01.532Z,1015.523
2022-11-29T10:28:01.368Z,1015.523
2022-11-29T10:35:01.491Z,1015.556
2022-11-29T10:42:01.575Z,1015.556
2022-11-29T10:49:01.354Z,1015.545
2022-11-29T10:56:02.162Z,1015.545
2022-11-29T11:00:01.815Z,1015.631
2022-11-29T11:07:01.655Z,1015.631
2022-11-29T11:14:02.081Z,1015.609
2022-11-29T11:21:02.147Z,1015.609
2022-11-29T11:28:01.926Z,1015.68
2022-11-29T11:35:02.556Z,1015.68
2022-11-29T11:42:02.012Z,1015.649
2022-11-29T11:49:02.009Z,1015.649
2022-11-29T11:56:02.080Z,1015.742
2022-11-29T12:00:06.657Z,1015.742
2022-11-29T12:07:01.542Z,1015.741
2022-11-29T12:14:01.448Z,1015.741
2022-11-29T12:21:02.030Z,1015.738
2022-11-29T12:28:01.753Z,1015.738
2022-11-29T12:35:02.264Z,1015.849
2022-11-29T12:42:01.965Z,1016.029
2022-11-29T12:49:01.745Z,1016.029
2022-11-29T12:56:02.171Z,1016.184
2022-11-29T13:00:01.715Z,1016.184
2022-11-29T13:07:01.669Z,1016.184
2022-11-29T13:14:20.255Z,1016.171
2022-11-29T13:21:02.036Z,1016.316
2022-11-29T13:28:01.454Z,1016.316
2022-11-29T13:35:02.484Z,1016.378
2022-11-29T13:42:02.282Z,1016.378
2022-11-29T13:49:02.141Z,1016.34
2022-11-29T13:56:01.645Z,1016.34
2022-11-29T14:00:02.232Z,1016.411
2022-11-29T14:07:01.558Z,1016.411
2022-11-29T14:14:01.717Z,1016.605
2022-11-29T14:21:01.906Z,1016.605
2022-11-29T14:28:02.144Z,1016.588
2022-11-29T14:35:02.188Z,1016.588
2022-11-29T14:42:01.794Z,1016.651
2022-11-29T14:49:01.507Z,1016.651
2022-11-29T14:56:01.431Z,1016.693
2022-11-29T15:00:02.005Z,1016.693
2022-11-29T15:07:01.498Z,1016.872
2022-11-29T15:14:02.235Z,1016.872
2022-11-29T15:21:01.989Z,1016.921
2022-11-29T15:28:01.693Z,1016.921
2022-11-29T15:35:02.094Z,1017.018
2022-11-29T15:42:01.739Z,1017.034
2022-11-29T15:49:02.294Z,1017.034
2022-11-29T15:56:02.210Z,1017.226
2022-11-29T16:00:01.716Z,1017.226
2022-11-29T16:07:01.942Z,1017.226
2022-11-29T16:14:01.739Z,1017.417
2022-11-29T16:21:01.988Z,1017.406
2022-11-29T16:28:02.038Z,1017.406
2022-11-29T16:35:01.566Z,1017.456
2022-11-29T16:42:02.331Z,1017.456
2022-11-29T16:49:02.288Z,1017.421
2022-11-29T16:56:02.160Z,1017.421
2022-11-29T17:00:01.690Z,1017.419
2022-11-29T17:07:02.027Z,1017.419
2022-11-29T17:14:01.994Z,1017.395
2022-11-29T17:21:01.657Z,1017.395
2022-11-29T17:28:01.457Z,1017.375
2022-11-29T17:35:02.063Z,1017.375
2022-11-29T17:42:01.689Z,1017.518
2022-11-29T17:49:01.441Z,1017.518
2022-11-29T17:56:01.648Z,1017.486
2022-11-29T18:00:02.257Z,1017.486
2022-11-29T18:07:01.605Z,1017.74
2022-11-29T18:14:01.776Z,1017.74
2022-11-29T18:21:02.053Z,1017.69
2022-11-29T18:28:01.830Z,1017.69
2022-11-29T18:35:01.564Z,1017.761
2022-11-29T18:42:01.358Z,1017.683
2022-11-29T18:49:01.597Z,1017.683
2022-11-29T18:56:02.055Z,1017.874
2022-11-29T19:00:01.695Z,1017.874
2022-11-29T19:07:01.693Z,1017.874
2022-11-29T19:14:02.081Z,1017.942
2022-11-29T19:21:01.972Z,1017.975
2022-11-29T19:28:01.579Z,1017.975
2022-11-29T19:35:02.365Z,1017.903
2022-11-29T19:42:01.415Z,1017.903
2022-11-29T19:49:01.443Z,1018.046
2022-11-29T19:56:02.186Z,1018.046
2022-11-29T20:00:01.777Z,1018.185
2022-11-29T20:07:01.641Z,1018.185
2022-11-29T20:14:01.306Z,1018.338
2022-11-29T20:21:01.344Z,1018.338
2022-11-29T20:28:01.738Z,1018.359
2022-11-29T20:35:02.159Z,1018.359
2022-11-29T20:42:02.079Z,1018.533
2022-11-29T20:49:06.141Z,1018.533
2022-11-29T20:56:02.180Z,1018.464
2022-11-29T21:00:01.855Z,1018.464
2022-11-29T21:07:01.601Z,1018.42
2022-11-29T21:14:01.730Z,1018.42
2022-11-29T21:21:02.203Z,1018.55
2022-11-29T21:28:01.654Z,1018.55
2022-11-29T21:35:02.069Z,1018.548
2022-11-29T21:42:02.058Z,1018.496
2022-11-29T21:49:01.386Z,1018.496
2022-11-29T21:56:02.181Z,1018.613
2022-11-29T22:00:01.745Z,1018.613
2022-11-29T22:07:01.513Z,1018.613
2022-11-29T22:14:02.152Z,1018.582
2022-11-29T22:21:01.521Z,1018.639
2022-11-29T22:28:01.853Z,1018.639
2022-11-29T22:35:01.894Z,1018.567
2022-11-29T22:42:01.999Z,1018.567
2022-11-29T22:49:01.890Z,1018.43
2022-11-29T22:56:01.967Z,1018.43
2022-11-29T23:00:02.491Z,1018.246
2022-11-29T23:07:02.214Z,1018.246
2022-11-29T23:14:02.097Z,1018.559
2022-11-29T23:21:02.101Z,1018.559
2022-11-29T23:28:01.339Z,1018.832
2022-11-29T23:35:02.195Z,1018.832
2022-11-29T23:42:01.953Z,1018.879
2022-11-29T23:49:01.957Z,1018.879
2022-11-29T23:56:02.025Z,1018.92
